Healing Springs, North Carolina
Current Conditions -  °F | °C
As of 6:55 AM on Thursday 23 Oct 2014 (Local Time) from KHBI Reporting Station
Clear Clear  
Wind Chill: 40°   Ceiling: Unl
Heat Index: 40°   Visibility: 10mi
Dew Point: 38°   Wind: 3mph
Humidity: 91%   Direction: 180°S
Pressure: 30.08"   Gusts: NA
Location:  35.6015°N, 80.0858°W
Report Text: KHBI 231055Z AUTO 18003KT 10SM CLR 05/03 A3008 RMK AO2 T00470033
Loading
Personal Weather Stations






























Interactive Weather Map
Tropical Storm Tracking
New forecast layout! Learn more

10-Day Weather Forecast

Advertisements
Track Severe Weather on mobile